CYQHPAWG

Guest
Details From CYQH - Watson Lake
To PAWG - Wrangell
Flight Number -
Tags Generated
Created
Modified
Stats Distance 245 nm / 454 km
Max Altitude 0 ft / 0 m
Waypoints 3
Social Downloads 1
Likes 0
Share VATSIM

Download

Looking for another format? Having issues loading an existing format? Contact us
Advertisement - Login to hide

Notes

Generated

Route

CYQH R0387 PAWG

ID Type Via Altitude Latitude Longitude Leg Dist Tot Dist Heading (true) Name
O CYQH APT - 0 ft / 0 m 60.12000˚ -128.83472˚ - 0 nm - -
R0387 FIX - 0 ft / 0 m 56.48860˚ -132.38250˚ 245 nm 245 nm 209° / 206° -
O PAWG APT - 0 ft / 0 m 56.48860˚ -132.38250˚ 0 nm 245 nm 0° / 180° -

Altitude Profile

Advertisement - Login to hide

Weather


0- 5 10 15 20 25 30 35+ Temperature / ° C

Clouds and Precipitation
Forecast for 2017-12-14 06:00 UTC. Updated 2 hours ago

Ground ~20,000 ft ~40,000 ft Winds

CYQH

Details ICAO CYQH (YQH)
Name WATSON LAKE
Region Canada
Timezone America/Whitehorse (UTC-8.0)
Stats Elevation 2,255 ft / 687 m (AMSL)
Location 60.117502° -128.820560°
Runways 1
Magnetic Variation 19.789° E

METAR

CYQH 140600Z CCA 00000KT 20SM OVC089 M07/M08 A3009 RMK AC8 CLIMAT -6.6/-6.9/0.0 SLP245

Decode

TAF

TAF CYQH 140538Z 1406/1418 VRB03KT P6SM BKN090 TEMPO 1406/1409 P6SM -SN BKN050 FM140900 VRB03KT P6SM OVC050 TEMPO 1409/1418 5SM -SN OVC030 PROB30 1409/1418 2SM -SNPL BR OVC015 RMK NXT FCST BY 141200Z

Decode

Departure Runways

ID Width Length Bearing (true) Bearing (mag) Surface Threshold Offset Overrun Length
08 150 ft / 46 m 5,462 ft / 1,665 m 109.49° 89.70° Asphalt 0 ft / 0 m 0 ft / 0 m
26 150 ft / 46 m 5,462 ft / 1,665 m 289.51° 269.72° Asphalt 0 ft / 0 m 0 ft / 0 m

PAWG

Details ICAO PAWG (WRG)
Name WRANGELL
Region USA (Alaska)
Timezone America/Juneau (UTC-9.0)
Stats Elevation 44 ft / 13 m (AMSL)
Location 56.484324° -132.369832°
Runways 1
Magnetic Variation 18.809° E

METAR

PAWG 140555Z 08008KT 10SM -RA BKN030 OVC040 08/07 A3018

Decode

TAF

PAWG 140531Z 1406/1506 08008KT 6SM -RA BR OVC030 WS020/15040KT FM141100 11015G25KT 4SM RA BR OVC025 WS020/15035KT FM142100 14010KT 4SM RA BR OVC015 FM150300 17008KT 5SM -RA BR SCT015 OVC025 AMD LTD TO CLD VIS AND WIND 1406/1415

Decode

Destination Runways

ID Width Length Bearing (true) Bearing (mag) Surface Threshold Offset Overrun Length
10 150 ft / 46 m 5,983 ft / 1,824 m 121.43° 102.62° Asphalt 0 ft / 0 m 0 ft / 0 m
28 150 ft / 46 m 5,983 ft / 1,824 m 301.45° 282.64° Asphalt 0 ft / 0 m 0 ft / 0 m

Approach Navaids

Runway Type Ident Frequency Range Bearing (true) Bearing (mag) Slope Elevation
10 Localiser IRGL 108.50 MHz 18 nm / 33 km 112.18° 93.37° - 40 ft / 12 m (AMSL)
10 DME IRGL 108.50 MHz 18 nm / 33 km - - - 58 ft / 18 m (AMSL)